createdAt,value
2022-11-29T00:01:32.821Z,99610.41
2022-11-29T00:04:00.133Z,99610.97
2022-11-29T00:06:29.207Z,99607.50
2022-11-29T00:08:57.261Z,99605.56
2022-11-29T00:11:46.001Z,99597.59
2022-11-29T00:14:15.544Z,99608.16
2022-11-29T00:16:42.360Z,99607.88
2022-11-29T00:19:10.440Z,99604.16
2022-11-29T00:21:37.900Z,99598.81
2022-11-29T00:24:04.692Z,99598.53
2022-11-29T00:26:31.344Z,99591.50
2022-11-29T00:28:58.148Z,99597.25
2022-11-29T00:31:30.786Z,99588.91
2022-11-29T00:34:01.689Z,99592.19
2022-11-29T00:36:28.742Z,99591.59
2022-11-29T00:38:55.304Z,99589.44
2022-11-29T00:41:22.260Z,99592.34
2022-11-29T00:43:48.822Z,99584.81
2022-11-29T00:46:15.419Z,99590.47
2022-11-29T00:48:42.299Z,99596.09
2022-11-29T00:51:09.223Z,99592.97
2022-11-29T00:53:36.456Z,99588.66
2022-11-29T00:56:04.024Z,99585.25
2022-11-29T00:58:30.840Z,99597.03
2022-11-29T01:00:57.490Z,99597.28
2022-11-29T01:03:24.981Z,99590.72
2022-11-29T01:05:52.034Z,99592.94
2022-11-29T01:08:19.126Z,99589.84
2022-11-29T01:10:45.989Z,99593.16
2022-11-29T01:13:13.842Z,99597.03
2022-11-29T01:15:40.631Z,99600.25
2022-11-29T01:18:07.239Z,99603.44
2022-11-29T01:20:33.757Z,99607.03
2022-11-29T01:23:00.264Z,99602.16
2022-11-29T01:25:27.221Z,99606.91
2022-11-29T01:27:54.489Z,99599.19
2022-11-29T01:30:21.466Z,99610.31
2022-11-29T01:32:48.157Z,99610.81
2022-11-29T01:35:14.687Z,99613.22
2022-11-29T01:37:41.216Z,99609.75
2022-11-29T01:40:08.415Z,99609.53
2022-11-29T01:42:34.958Z,99603.97
2022-11-29T01:45:33.719Z,99610.41
2022-11-29T01:48:00.995Z,99609.97
2022-11-29T01:50:27.568Z,99605.09
2022-11-29T01:52:54.247Z,99612.19
2022-11-29T01:55:21.309Z,99603.47
2022-11-29T01:57:48.039Z,99608.66
2022-11-29T02:00:17.353Z,99613.41
2022-11-29T02:02:59.304Z,99616.59
2022-11-29T02:05:25.860Z,99609.22
2022-11-29T02:07:54.993Z,99617.78
2022-11-29T02:10:31.841Z,99613.59
2022-11-29T02:13:08.126Z,99610.66
2022-11-29T02:16:07.292Z,99610.81
2022-11-29T02:18:39.515Z,99610.66
2022-11-29T02:21:08.826Z,99614.50
2022-11-29T02:24:06.119Z,99614.16
2022-11-29T02:27:17.374Z,99609.53
2022-11-29T02:29:53.157Z,99619.25
2022-11-29T02:32:38.006Z,99618.91
2022-11-29T02:35:13.629Z,99605.16
2022-11-29T02:37:45.948Z,99605.72
2022-11-29T02:40:21.719Z,99604.91
2022-11-29T02:43:10.055Z,99604.59
2022-11-29T02:45:48.764Z,99603.16
2022-11-29T02:48:42.760Z,99606.56
2022-11-29T02:51:25.867Z,99604.81
2022-11-29T02:54:02.009Z,99613.25
2022-11-29T02:56:40.613Z,99608.91
2022-11-29T02:59:26.124Z,99603.03
2022-11-29T03:02:17.305Z,99607.25
2022-11-29T03:04:51.740Z,99607.00
2022-11-29T03:07:58.684Z,99604.06
2022-11-29T03:10:37.139Z,99601.81
2022-11-29T03:13:08.581Z,99599.56
2022-11-29T03:15:59.785Z,99607.09
2022-11-29T03:18:56.035Z,99610.44
2022-11-29T03:21:22.569Z,99605.84
2022-11-29T03:23:53.954Z,99608.50
2022-11-29T03:26:38.284Z,99607.25
2022-11-29T03:29:32.647Z,99603.56
2022-11-29T03:32:10.213Z,99609.34
2022-11-29T03:34:54.304Z,99614.78
2022-11-29T03:37:45.820Z,99611.66
2022-11-29T03:40:20.344Z,99607.56
2022-11-29T03:43:30.884Z,99612.13
2022-11-29T03:46:04.997Z,99606.78
2022-11-29T03:48:39.051Z,99612.63
2022-11-29T03:51:21.035Z,99618.59
2022-11-29T03:53:56.728Z,99617.50
2022-11-29T03:56:31.669Z,99621.25
2022-11-29T03:59:19.300Z,99623.28
2022-11-29T04:01:54.490Z,99623.31
2022-11-29T04:04:47.940Z,99632.13
2022-11-29T04:07:42.242Z,99629.84
2022-11-29T04:10:21.501Z,99631.06
2022-11-29T04:13:19.183Z,99636.97
2022-11-29T04:16:19.987Z,99639.28
2022-11-29T04:18:52.553Z,99634.00
2022-11-29T04:22:00.332Z,99636.59
2022-11-29T04:24:56.588Z,99633.50
2022-11-29T04:27:34.297Z,99639.44
2022-11-29T04:30:03.470Z,99639.28
2022-11-29T04:32:54.788Z,99645.94
2022-11-29T04:35:34.524Z,99639.75
2022-11-29T04:38:09.936Z,99643.63
2022-11-29T04:40:43.435Z,99644.06
2022-11-29T04:43:12.906Z,99639.47
2022-11-29T04:45:44.682Z,99642.31
2022-11-29T04:48:22.255Z,99639.63
2022-11-29T04:51:20.656Z,99647.06
2022-11-29T04:53:56.793Z,99645.56
2022-11-29T04:56:47.092Z,99649.81
2022-11-29T04:59:19.808Z,99649.41
2022-11-29T05:02:05.594Z,99650.09
2022-11-29T05:04:56.863Z,99655.00
2022-11-29T05:07:54.311Z,99656.66
2022-11-29T05:10:45.106Z,99651.84
2022-11-29T05:13:28.138Z,99648.53
2022-11-29T05:16:13.815Z,99662.22
2022-11-29T05:19:01.410Z,99660.63
2022-11-29T05:21:49.868Z,99656.28
2022-11-29T05:24:38.080Z,99658.13
2022-11-29T05:27:23.505Z,99658.75
2022-11-29T05:29:59.696Z,99658.03
2022-11-29T05:32:53.858Z,99668.94
2022-11-29T05:35:48.039Z,99668.19
2022-11-29T05:38:24.486Z,99671.53
2022-11-29T05:41:09.253Z,99667.50
2022-11-29T05:44:12.669Z,99667.47
2022-11-29T05:47:11.807Z,99674.13
2022-11-29T05:49:41.154Z,99670.03
2022-11-29T05:52:13.930Z,99671.00
2022-11-29T05:55:11.736Z,99674.84
2022-11-29T05:57:57.222Z,99672.25
2022-11-29T06:00:26.995Z,99675.06
2022-11-29T06:03:00.468Z,99681.69
2022-11-29T06:05:42.408Z,99681.34
2022-11-29T06:08:36.608Z,99682.41
2022-11-29T06:11:13.816Z,99678.78
2022-11-29T06:14:02.587Z,99680.41
2022-11-29T06:17:26.539Z,99693.66
2022-11-29T06:20:19.172Z,99695.91
2022-11-29T06:22:50.542Z,99696.13
2022-11-29T06:25:17.724Z,99701.06
2022-11-29T06:28:22.528Z,99701.47
2022-11-29T06:31:02.991Z,99699.19
2022-11-29T06:33:42.058Z,99691.47
2022-11-29T06:36:29.615Z,99699.75
2022-11-29T06:38:56.444Z,99694.38
2022-11-29T06:41:24.333Z,99699.22
2022-11-29T06:43:51.187Z,99705.31
2022-11-29T06:46:45.516Z,99702.88
2022-11-29T06:49:26.978Z,99707.81
2022-11-29T06:52:27.420Z,99711.00
2022-11-29T06:55:09.478Z,99709.72
2022-11-29T06:57:47.847Z,99703.63
2022-11-29T07:00:27.170Z,99712.34
2022-11-29T07:03:00.667Z,99713.63
2022-11-29T07:05:35.161Z,99713.06
2022-11-29T07:08:10.891Z,99713.25
2022-11-29T07:10:40.994Z,99712.88
2022-11-29T07:13:07.730Z,99711.41
2022-11-29T07:15:36.861Z,99726.16
2022-11-29T07:18:17.236Z,99730.41
2022-11-29T07:21:11.653Z,99729.09
2022-11-29T07:23:57.629Z,99729.13
2022-11-29T07:26:35.231Z,99718.53
2022-11-29T07:29:20.730Z,99732.38
2022-11-29T07:31:56.530Z,99725.56
2022-11-29T07:34:29.316Z,99728.06
2022-11-29T07:37:19.837Z,99733.31
2022-11-29T07:39:46.358Z,99729.25
2022-11-29T07:42:25.904Z,99725.16
2022-11-29T07:45:24.812Z,99728.81
2022-11-29T07:47:51.756Z,99733.69
2022-11-29T07:50:18.902Z,99734.59
2022-11-29T07:52:45.684Z,99730.16
2022-11-29T07:55:19.150Z,99727.97
2022-11-29T07:57:46.213Z,99732.75
2022-11-29T08:00:13.878Z,99732.06
2022-11-29T08:02:41.004Z,99731.63
2022-11-29T08:05:08.804Z,99730.72
2022-11-29T08:07:36.743Z,99725.28
2022-11-29T08:10:05.438Z,99737.19
2022-11-29T08:12:32.102Z,99727.78
2022-11-29T08:14:58.610Z,99737.13
2022-11-29T08:17:26.055Z,99737.00
2022-11-29T08:19:52.945Z,99740.31
2022-11-29T08:22:19.645Z,99741.34
2022-11-29T08:24:46.711Z,99743.75
2022-11-29T08:27:13.630Z,99744.28
2022-11-29T08:29:40.132Z,99738.94
2022-11-29T08:32:06.808Z,99744.13
2022-11-29T08:34:33.415Z,99751.53
2022-11-29T08:36:59.926Z,99746.53
2022-11-29T08:39:26.566Z,99748.25
2022-11-29T08:41:53.104Z,99755.66
2022-11-29T08:44:19.689Z,99756.16
2022-11-29T08:47:04.661Z,99763.53
2022-11-29T08:49:31.410Z,99772.75
2022-11-29T08:52:17.889Z,99771.13
2022-11-29T08:54:44.963Z,99767.44
2022-11-29T08:57:40.720Z,99765.38
2022-11-29T08:59:58.380Z,99772.19
2022-11-29T09:02:24.956Z,99764.25
2022-11-29T09:04:51.601Z,99773.69
2022-11-29T09:07:18.509Z,99773.97
2022-11-29T09:09:45.031Z,99780.25
2022-11-29T09:12:11.531Z,99772.69
2022-11-29T09:14:38.300Z,99775.25
2022-11-29T09:17:04.805Z,99775.44
2022-11-29T09:19:31.426Z,99769.91
2022-11-29T09:21:58.059Z,99779.16
2022-11-29T09:24:24.601Z,99773.41
2022-11-29T09:26:51.436Z,99775.44
2022-11-29T09:29:18.311Z,99775.31
2022-11-29T09:31:45.336Z,99778.28
2022-11-29T09:34:16.433Z,99772.88
2022-11-29T09:36:45.844Z,99777.72
2022-11-29T09:39:12.509Z,99777.59
2022-11-29T09:41:41.962Z,99785.69
2022-11-29T09:44:46.698Z,99783.94
2022-11-29T09:47:35.377Z,99781.88
2022-11-29T09:50:20.242Z,99784.75
2022-11-29T09:53:12.879Z,99794.84
2022-11-29T09:55:48.164Z,99786.34
2022-11-29T09:58:21.564Z,99780.50
2022-11-29T10:01:05.403Z,99788.97
2022-11-29T10:03:35.001Z,99778.84
2022-11-29T10:06:14.424Z,99781.72
2022-11-29T10:08:46.953Z,99781.50
2022-11-29T10:11:13.560Z,99789.19
2022-11-29T10:13:45.897Z,99782.13
2022-11-29T10:16:19.724Z,99773.34
2022-11-29T10:19:12.632Z,99786.06
2022-11-29T10:21:42.954Z,99781.78
2022-11-29T10:24:20.543Z,99777.50
2022-11-29T10:26:47.218Z,99775.94
2022-11-29T10:29:15.616Z,99779.22
2022-11-29T10:31:49.522Z,99779.09
2022-11-29T10:34:21.351Z,99779.13
2022-11-29T10:36:59.614Z,99775.66
2022-11-29T10:39:42.220Z,99768.94
2022-11-29T10:42:38.933Z,99771.91
2022-11-29T10:45:15.047Z,99774.06
2022-11-29T10:47:41.716Z,99766.16
2022-11-29T10:50:16.943Z,99773.47
2022-11-29T10:52:43.966Z,99764.69
2022-11-29T10:55:14.757Z,99751.94
2022-11-29T10:58:11.235Z,99763.44
2022-11-29T11:00:50.770Z,99752.69
2022-11-29T11:03:31.089Z,99758.25
2022-11-29T11:06:18.986Z,99756.59
2022-11-29T11:08:54.467Z,99755.16
2022-11-29T11:11:33.701Z,99762.09
2022-11-29T11:14:06.717Z,99763.28
2022-11-29T11:16:37.347Z,99751.34
2022-11-29T11:19:33.350Z,99746.41
2022-11-29T11:22:02.311Z,99746.00
2022-11-29T11:24:31.714Z,99749.28
2022-11-29T11:26:59.123Z,99750.09
2022-11-29T11:29:35.218Z,99749.69
2022-11-29T11:32:02.085Z,99742.84
2022-11-29T11:34:38.752Z,99748.50
2022-11-29T11:37:20.307Z,99734.41
2022-11-29T11:39:49.880Z,99741.81
2022-11-29T11:42:37.983Z,99738.38
2022-11-29T11:45:13.302Z,99743.19
2022-11-29T11:47:51.097Z,99738.72
2022-11-29T11:50:28.496Z,99755.00
2022-11-29T11:53:23.561Z,99743.66
2022-11-29T11:56:16.612Z,99752.53
2022-11-29T11:58:56.889Z,99747.91
2022-11-29T12:01:39.220Z,99742.19
2022-11-29T12:04:19.099Z,99750.72
2022-11-29T12:06:56.283Z,99748.56
2022-11-29T12:09:37.750Z,99753.75
2022-11-29T12:12:15.029Z,99746.19
2022-11-29T12:14:48.040Z,99742.63
2022-11-29T12:17:33.812Z,99753.31
2022-11-29T12:20:05.923Z,99750.63
2022-11-29T12:22:46.617Z,99755.53
2022-11-29T12:25:23.455Z,99756.59
2022-11-29T12:27:50.991Z,99753.75
2022-11-29T12:30:18.930Z,99752.25
2022-11-29T12:32:57.896Z,99751.56
2022-11-29T12:35:30.215Z,99743.47
2022-11-29T12:38:28.064Z,99749.13
2022-11-29T12:41:16.317Z,99756.56
2022-11-29T12:44:05.565Z,99760.06
2022-11-29T12:46:33.202Z,99763.22
2022-11-29T12:49:20.718Z,99757.38
2022-11-29T12:52:12.300Z,99765.09
2022-11-29T12:54:38.829Z,99750.50
2022-11-29T12:57:18.371Z,99750.88
2022-11-29T13:00:05.927Z,99752.38
2022-11-29T13:03:11.688Z,99752.69
2022-11-29T13:05:59.729Z,99753.31
2022-11-29T13:08:47.814Z,99751.97
2022-11-29T13:11:36.354Z,99751.31
2022-11-29T13:14:42.056Z,99740.09
2022-11-29T13:17:35.379Z,99744.31
2022-11-29T13:20:22.290Z,99743.06
2022-11-29T13:23:05.244Z,99742.66
2022-11-29T13:25:39.207Z,99745.75
2022-11-29T13:28:40.464Z,99745.34
2022-11-29T13:31:12.760Z,99741.78
2022-11-29T13:34:08.887Z,99741.09
2022-11-29T13:36:43.933Z,99749.75
2022-11-29T13:39:32.545Z,99740.44
2022-11-29T13:42:12.949Z,99740.00
2022-11-29T13:44:57.720Z,99742.56
2022-11-29T13:47:26.005Z,99739.63
2022-11-29T13:50:07.538Z,99751.97
2022-11-29T13:52:47.856Z,99753.56
2022-11-29T13:55:23.039Z,99749.00
2022-11-29T13:58:16.765Z,99754.38
2022-11-29T14:00:44.571Z,99747.09
2022-11-29T14:03:23.448Z,99761.34
2022-11-29T14:05:52.221Z,99757.41
2022-11-29T14:08:47.721Z,99753.94
2022-11-29T14:11:17.630Z,99759.84
2022-11-29T14:13:59.421Z,99761.16
2022-11-29T14:16:33.926Z,99761.53
2022-11-29T14:19:03.675Z,99764.59
2022-11-29T14:22:05.609Z,99759.69
2022-11-29T14:24:32.132Z,99764.53
2022-11-29T14:27:12.257Z,99764.56
2022-11-29T14:29:50.859Z,99766.69
2022-11-29T14:32:32.530Z,99776.72
2022-11-29T14:35:17.932Z,99773.47
2022-11-29T14:38:29.238Z,99778.53
2022-11-29T14:41:13.371Z,99769.78
2022-11-29T14:43:43.295Z,99772.88
2022-11-29T14:46:16.395Z,99783.66
2022-11-29T14:48:57.490Z,99771.97
2022-11-29T14:51:27.381Z,99772.47
2022-11-29T14:54:19.757Z,99782.78
2022-11-29T14:56:47.470Z,99778.22
2022-11-29T14:59:52.606Z,99781.69
2022-11-29T15:02:37.940Z,99783.56
2022-11-29T15:05:33.249Z,99787.13
2022-11-29T15:07:59.841Z,99781.16
2022-11-29T15:10:30.196Z,99787.28
2022-11-29T15:12:59.777Z,99789.31
2022-11-29T15:15:32.213Z,99790.09
2022-11-29T15:18:17.246Z,99795.31
2022-11-29T15:20:56.097Z,99793.38
2022-11-29T15:23:22.881Z,99792.13
2022-11-29T15:25:52.133Z,99784.53
2022-11-29T15:28:20.973Z,99784.09
2022-11-29T15:30:49.854Z,99788.16
2022-11-29T15:33:22.605Z,99797.47
2022-11-29T15:35:54.788Z,99798.72
2022-11-29T15:38:23.808Z,99799.19
2022-11-29T15:40:53.110Z,99809.44
2022-11-29T15:43:30.549Z,99798.63
2022-11-29T15:45:58.210Z,99795.00
2022-11-29T15:48:27.004Z,99801.97
2022-11-29T15:50:53.590Z,99802.41
2022-11-29T15:53:47.524Z,99795.81
2022-11-29T15:56:29.884Z,99792.44
2022-11-29T15:59:01.992Z,99800.66
2022-11-29T16:01:28.904Z,99799.72
2022-11-29T16:03:58.076Z,99801.75
2022-11-29T16:06:28.236Z,99801.38
2022-11-29T16:08:55.317Z,99811.13
2022-11-29T16:11:24.846Z,99806.69
2022-11-29T16:14:18.075Z,99810.03
2022-11-29T16:16:47.483Z,99822.09
2022-11-29T16:19:34.513Z,99823.91
2022-11-29T16:22:24.251Z,99822.84
2022-11-29T16:25:02.800Z,99829.97
2022-11-29T16:27:33.644Z,99825.63
2022-11-29T16:30:01.494Z,99835.72
2022-11-29T16:32:37.204Z,99830.56
2022-11-29T16:35:14.040Z,99822.78
2022-11-29T16:37:43.474Z,99827.13
2022-11-29T16:40:35.397Z,99824.06
2022-11-29T16:43:06.679Z,99824.59
2022-11-29T16:45:33.921Z,99832.44
2022-11-29T16:48:02.782Z,99836.34
2022-11-29T16:50:31.748Z,99833.41
2022-11-29T16:53:37.823Z,99837.47
2022-11-29T16:56:05.670Z,99838.72
2022-11-29T16:58:35.464Z,99828.16
2022-11-29T17:01:29.899Z,99823.06
2022-11-29T17:03:59.406Z,99818.34
2022-11-29T17:06:28.039Z,99811.69
2022-11-29T17:08:57.375Z,99815.38
2022-11-29T17:11:23.997Z,99805.94
2022-11-29T17:13:50.972Z,99818.00
2022-11-29T17:16:20.253Z,99819.59
2022-11-29T17:18:47.244Z,99821.09
2022-11-29T17:21:21.941Z,99828.59
2022-11-29T17:23:48.991Z,99828.41
2022-11-29T17:26:15.826Z,99824.28
2022-11-29T17:28:47.441Z,99822.94
2022-11-29T17:31:19.478Z,99823.28
2022-11-29T17:33:46.431Z,99822.41
2022-11-29T17:36:16.660Z,99828.19
2022-11-29T17:38:44.629Z,99829.03
2022-11-29T17:41:13.658Z,99829.69
2022-11-29T17:43:40.789Z,99833.94
2022-11-29T17:46:12.880Z,99843.38
2022-11-29T17:48:39.700Z,99828.75
2022-11-29T17:51:22.862Z,99840.94
2022-11-29T17:53:54.722Z,99849.63
2022-11-29T17:56:23.914Z,99842.41
2022-11-29T17:58:55.539Z,99847.81
2022-11-29T18:01:24.936Z,99855.75
2022-11-29T18:03:53.900Z,99864.25
2022-11-29T18:06:22.965Z,99863.16
2022-11-29T18:08:53.840Z,99862.59
2022-11-29T18:11:22.787Z,99865.38
2022-11-29T18:13:49.799Z,99858.69
2022-11-29T18:16:19.325Z,99863.53
2022-11-29T18:18:47.031Z,99858.91
2022-11-29T18:21:14.453Z,99861.28
2022-11-29T18:23:43.530Z,99849.88
2022-11-29T18:26:16.135Z,99864.25
2022-11-29T18:28:44.415Z,99856.13
2022-11-29T18:31:15.929Z,99863.75
2022-11-29T18:33:44.864Z,99862.78
2022-11-29T18:36:14.398Z,99864.25
2022-11-29T18:38:43.009Z,99859.81
2022-11-29T18:41:21.213Z,99857.81
2022-11-29T18:43:48.931Z,99865.56
2022-11-29T18:46:18.546Z,99860.19
2022-11-29T18:48:46.507Z,99869.06
2022-11-29T18:51:15.484Z,99871.75
2022-11-29T18:53:43.388Z,99869.91
2022-11-29T18:56:17.301Z,99859.38
2022-11-29T18:58:46.310Z,99862.16
2022-11-29T19:01:18.893Z,99870.91
2022-11-29T19:03:47.525Z,99867.56
2022-11-29T19:06:16.241Z,99864.19
2022-11-29T19:08:43.483Z,99868.44
2022-11-29T19:11:19.408Z,99867.69
2022-11-29T19:13:46.616Z,99866.94
2022-11-29T19:16:16.270Z,99866.28
2022-11-29T19:18:43.734Z,99873.50
2022-11-29T19:21:13.059Z,99867.97
2022-11-29T19:23:40.532Z,99863.72
2022-11-29T19:26:12.409Z,99869.63
2022-11-29T19:28:41.336Z,99862.59
2022-11-29T19:31:09.178Z,99864.25
2022-11-29T19:33:37.437Z,99862.97
2022-11-29T19:36:13.214Z,99867.97
2022-11-29T19:38:40.424Z,99863.50
2022-11-29T19:41:11.707Z,99858.34
2022-11-29T19:43:38.530Z,99866.84
2022-11-29T19:46:12.703Z,99870.75
2022-11-29T19:48:40.083Z,99870.38
2022-11-29T19:51:07.682Z,99870.91
2022-11-29T19:53:35.138Z,99873.91
2022-11-29T19:56:14.585Z,99870.59
2022-11-29T19:58:41.564Z,99868.56
2022-11-29T20:01:10.699Z,99860.06
2022-11-29T20:03:37.924Z,99861.53
2022-11-29T20:06:04.600Z,99863.75
2022-11-29T20:08:31.205Z,99868.56
2022-11-29T20:11:09.762Z,99874.28
2022-11-29T20:13:37.784Z,99875.75
2022-11-29T20:16:06.083Z,99874.28
2022-11-29T20:18:33.839Z,99877.59
2022-11-29T20:21:12.037Z,99867.25
2022-11-29T20:23:39.807Z,99873.13
2022-11-29T20:26:10.508Z,99871.66
2022-11-29T20:28:37.264Z,99870.00
2022-11-29T20:31:13.087Z,99870.59
2022-11-29T20:33:41.454Z,99873.16
2022-11-29T20:36:30.820Z,99869.09
2022-11-29T20:39:07.436Z,99861.31
2022-11-29T20:41:53.865Z,99866.31
2022-11-29T20:44:31.537Z,99873.69
2022-11-29T20:46:59.496Z,99868.53
2022-11-29T20:49:26.280Z,99871.50
2022-11-29T20:52:02.513Z,99872.00
2022-11-29T20:54:29.136Z,99865.53
2022-11-29T20:56:55.662Z,99875.28
2022-11-29T20:59:22.272Z,99877.56
2022-11-29T21:01:48.883Z,99881.25
2022-11-29T21:04:18.936Z,99884.97
2022-11-29T21:06:48.255Z,99882.56
2022-11-29T21:09:14.741Z,99882.00
2022-11-29T21:11:41.508Z,99878.50
2022-11-29T21:14:09.187Z,99866.84
2022-11-29T21:16:35.862Z,99869.09
2022-11-29T21:19:02.907Z,99880.38
2022-11-29T21:21:48.215Z,99871.31
2022-11-29T21:24:29.340Z,99885.00
2022-11-29T21:26:56.203Z,99887.75
2022-11-29T21:29:23.641Z,99889.06
2022-11-29T21:31:52.812Z,99892.94
2022-11-29T21:34:20.767Z,99889.41
2022-11-29T21:36:58.831Z,99886.09
2022-11-29T21:39:35.139Z,99875.00
2022-11-29T21:42:01.970Z,99875.75
2022-11-29T21:44:28.487Z,99879.63
2022-11-29T21:46:55.189Z,99883.16
2022-11-29T21:49:21.905Z,99873.34
2022-11-29T21:51:48.402Z,99884.22
2022-11-29T21:54:14.947Z,99880.34
2022-11-29T21:56:41.616Z,99892.19
2022-11-29T21:59:08.118Z,99896.25
2022-11-29T22:01:34.877Z,99895.13
2022-11-29T22:04:01.593Z,99892.72
2022-11-29T22:06:29.430Z,99888.84
2022-11-29T22:08:56.411Z,99895.69
2022-11-29T22:11:34.202Z,99894.75
2022-11-29T22:14:21.133Z,99893.13
2022-11-29T22:16:52.016Z,99887.19
2022-11-29T22:19:21.025Z,99895.69
2022-11-29T22:21:52.731Z,99891.81
2022-11-29T22:24:22.047Z,99898.09
2022-11-29T22:26:49.697Z,99891.63
2022-11-29T22:29:16.958Z,99900.63
2022-11-29T22:31:45.402Z,99894.22
2022-11-29T22:34:12.474Z,99891.63
2022-11-29T22:36:40.094Z,99884.81
2022-11-29T22:39:07.713Z,99884.06
2022-11-29T22:41:35.557Z,99891.81
2022-11-29T22:44:03.114Z,99880.03
2022-11-29T22:46:29.850Z,99885.72
2022-11-29T22:48:57.980Z,99890.53
2022-11-29T22:51:27.844Z,99893.81
2022-11-29T22:53:56.305Z,99889.25
2022-11-29T22:56:24.775Z,99898.25
2022-11-29T22:58:52.019Z,99887.94
2022-11-29T23:01:21.367Z,99891.84
2022-11-29T23:03:53.916Z,99886.47
2022-11-29T23:06:23.375Z,99888.13
2022-11-29T23:08:51.788Z,99897.84
2022-11-29T23:11:21.067Z,99889.19
2022-11-29T23:13:48.121Z,99895.28
2022-11-29T23:16:24.289Z,99893.31
2022-11-29T23:18:51.715Z,99894.00
2022-11-29T23:21:23.775Z,99890.50
2022-11-29T23:23:55.991Z,99884.41
2022-11-29T23:26:28.473Z,99886.78
2022-11-29T23:28:55.572Z,99891.38
2022-11-29T23:31:23.416Z,99889.56
2022-11-29T23:33:50.761Z,99877.19
2022-11-29T23:36:17.576Z,99882.19
2022-11-29T23:38:44.485Z,99888.06
2022-11-29T23:41:11.741Z,99884.34
2022-11-29T23:43:40.431Z,99879.41
2022-11-29T23:46:14.293Z,99876.63
2022-11-29T23:48:40.955Z,99890.09
2022-11-29T23:51:07.796Z,99876.09
2022-11-29T23:53:34.404Z,99886.63
2022-11-29T23:56:03.649Z,99886.09
2022-11-29T23:58:31.434Z,99889.94
